sensor_id;sensor_type;location;lat;lon;timestamp;temperature;humidity
67559;DHT22;54388;53.536;49.300;2023-04-20T00:00:21;12.50;25.80
67559;DHT22;54388;53.536;49.300;2023-04-20T00:02:47;12.50;25.90
67559;DHT22;54388;53.536;49.300;2023-04-20T00:05:15;12.50;25.90
67559;DHT22;54388;53.536;49.300;2023-04-20T00:07:44;12.50;25.90
67559;DHT22;54388;53.536;49.300;2023-04-20T00:10:13;12.40;26.00
67559;DHT22;54388;53.536;49.300;2023-04-20T00:12:45;12.40;26.10
67559;DHT22;54388;53.536;49.300;2023-04-20T00:15:12;12.40;26.10
67559;DHT22;54388;53.536;49.300;2023-04-20T00:17:39;12.40;26.10
67559;DHT22;54388;53.536;49.300;2023-04-20T00:20:06;12.40;26.10
67559;DHT22;54388;53.536;49.300;2023-04-20T00:22:35;12.30;26.20
67559;DHT22;54388;53.536;49.300;2023-04-20T00:25:04;12.30;26.30
67559;DHT22;54388;53.536;49.300;2023-04-20T00:27:34;12.30;26.40
67559;DHT22;54388;53.536;49.300;2023-04-20T00:30:08;12.30;26.50
67559;DHT22;54388;53.536;49.300;2023-04-20T00:32:40;12.30;26.70
67559;DHT22;54388;53.536;49.300;2023-04-20T00:35:06;12.20;26.60
67559;DHT22;54388;53.536;49.300;2023-04-20T00:37:35;12.20;26.70
67559;DHT22;54388;53.536;49.300;2023-04-20T00:40:07;12.20;26.70
67559;DHT22;54388;53.536;49.300;2023-04-20T00:42:37;12.20;26.80
67559;DHT22;54388;53.536;49.300;2023-04-20T00:45:08;12.10;26.80
67559;DHT22;54388;53.536;49.300;2023-04-20T00:47:40;12.10;26.90
67559;DHT22;54388;53.536;49.300;2023-04-20T00:50:10;12.10;26.90
67559;DHT22;54388;53.536;49.300;2023-04-20T00:52:39;12.10;26.90
67559;DHT22;54388;53.536;49.300;2023-04-20T00:55:11;12.10;27.00
67559;DHT22;54388;53.536;49.300;2023-04-20T00:57:38;12.10;27.10
67559;DHT22;54388;53.536;49.300;2023-04-20T01:00:13;12.00;27.00
67559;DHT22;54388;53.536;49.300;2023-04-20T01:02:44;12.00;27.10
67559;DHT22;54388;53.536;49.300;2023-04-20T01:05:14;11.90;27.10
67559;DHT22;54388;53.536;49.300;2023-04-20T01:07:40;11.90;27.30
67559;DHT22;54388;53.536;49.300;2023-04-20T01:10:11;11.90;27.20
67559;DHT22;54388;53.536;49.300;2023-04-20T01:12:46;11.90;27.30
67559;DHT22;54388;53.536;49.300;2023-04-20T01:15:15;11.80;27.30
67559;DHT22;54388;53.536;49.300;2023-04-20T01:17:44;11.80;27.40
67559;DHT22;54388;53.536;49.300;2023-04-20T01:20:13;11.80;27.40
67559;DHT22;54388;53.536;49.300;2023-04-20T01:22:50;11.70;27.50
67559;DHT22;54388;53.536;49.300;2023-04-20T01:25:22;11.70;27.70
67559;DHT22;54388;53.536;49.300;2023-04-20T01:27:51;11.60;27.70
67559;DHT22;54388;53.536;49.300;2023-04-20T01:30:25;11.60;27.80
67559;DHT22;54388;53.536;49.300;2023-04-20T01:32:52;11.50;27.90
67559;DHT22;54388;53.536;49.300;2023-04-20T01:35:27;11.50;27.90
67559;DHT22;54388;53.536;49.300;2023-04-20T01:37:55;11.50;28.10
67559;DHT22;54388;53.536;49.300;2023-04-20T01:40:22;11.40;28.00
67559;DHT22;54388;53.536;49.300;2023-04-20T01:42:49;11.40;28.00
67559;DHT22;54388;53.536;49.300;2023-04-20T01:45:23;11.40;28.10
67559;DHT22;54388;53.536;49.300;2023-04-20T01:47:52;11.40;28.20
67559;DHT22;54388;53.536;49.300;2023-04-20T01:50:21;11.40;28.10
67559;DHT22;54388;53.536;49.300;2023-04-20T01:52:50;11.40;28.20
67559;DHT22;54388;53.536;49.300;2023-04-20T01:55:19;11.40;28.20
67559;DHT22;54388;53.536;49.300;2023-04-20T01:57:48;11.40;28.20
67559;DHT22;54388;53.536;49.300;2023-04-20T02:00:21;11.40;28.30
67559;DHT22;54388;53.536;49.300;2023-04-20T02:02:50;11.40;28.30
67559;DHT22;54388;53.536;49.300;2023-04-20T02:05:19;11.40;28.30
67559;DHT22;54388;53.536;49.300;2023-04-20T02:07:47;11.40;28.30
67559;DHT22;54388;53.536;49.300;2023-04-20T02:10:22;11.40;28.20
67559;DHT22;54388;53.536;49.300;2023-04-20T02:12:49;11.50;28.30
67559;DHT22;54388;53.536;49.300;2023-04-20T02:15:16;11.50;28.20
67559;DHT22;54388;53.536;49.300;2023-04-20T02:17:45;11.50;28.30
67559;DHT22;54388;53.536;49.300;2023-04-20T02:20:19;11.60;28.30
67559;DHT22;54388;53.536;49.300;2023-04-20T02:22:52;11.70;28.30
67559;DHT22;54388;53.536;49.300;2023-04-20T02:25:23;11.80;28.20
67559;DHT22;54388;53.536;49.300;2023-04-20T02:27:55;12.00;28.20
67559;DHT22;54388;53.536;49.300;2023-04-20T02:30:22;12.10;28.20
67559;DHT22;54388;53.536;49.300;2023-04-20T02:32:48;12.20;28.00
67559;DHT22;54388;53.536;49.300;2023-04-20T02:35:17;12.40;28.00
67559;DHT22;54388;53.536;49.300;2023-04-20T02:37:47;12.60;28.00
67559;DHT22;54388;53.536;49.300;2023-04-20T02:40:14;12.80;27.80
67559;DHT22;54388;53.536;49.300;2023-04-20T02:42:46;13.00;27.60
67559;DHT22;54388;53.536;49.300;2023-04-20T02:45:17;13.20;27.40
67559;DHT22;54388;53.536;49.300;2023-04-20T02:47:50;13.50;27.20
67559;DHT22;54388;53.536;49.300;2023-04-20T02:50:19;13.70;27.00
67559;DHT22;54388;53.536;49.300;2023-04-20T02:52:53;14.00;26.80
67559;DHT22;54388;53.536;49.300;2023-04-20T02:55:22;14.20;26.80
67559;DHT22;54388;53.536;49.300;2023-04-20T02:57:51;14.50;26.50
67559;DHT22;54388;53.536;49.300;2023-04-20T03:00:20;14.70;26.30
67559;DHT22;54388;53.536;49.300;2023-04-20T03:02:50;14.90;26.10
67559;DHT22;54388;53.536;49.300;2023-04-20T03:05:19;15.20;26.00
67559;DHT22;54388;53.536;49.300;2023-04-20T03:07:47;15.40;25.70
67559;DHT22;54388;53.536;49.300;2023-04-20T03:10:15;15.80;25.50
67559;DHT22;54388;53.536;49.300;2023-04-20T03:12:44;16.10;25.10
67559;DHT22;54388;53.536;49.300;2023-04-20T03:15:14;16.40;24.70
67559;DHT22;54388;53.536;49.300;2023-04-20T03:17:45;16.70;24.40
67559;DHT22;54388;53.536;49.300;2023-04-20T03:20:14;17.10;24.10
67559;DHT22;54388;53.536;49.300;2023-04-20T03:22:46;17.30;24.50
67559;DHT22;54388;53.536;49.300;2023-04-20T03:25:15;17.70;23.60
67559;DHT22;54388;53.536;49.300;2023-04-20T03:27:45;17.90;23.20
67559;DHT22;54388;53.536;49.300;2023-04-20T03:30:15;18.30;22.90
67559;DHT22;54388;53.536;49.300;2023-04-20T03:32:42;18.70;22.60
67559;DHT22;54388;53.536;49.300;2023-04-20T03:35:13;19.00;22.20
67559;DHT22;54388;53.536;49.300;2023-04-20T03:37:42;19.40;21.80
67559;DHT22;54388;53.536;49.300;2023-04-20T03:40:09;19.80;21.50
67559;DHT22;54388;53.536;49.300;2023-04-20T03:42:38;20.10;21.10
67559;DHT22;54388;53.536;49.300;2023-04-20T03:45:05;20.40;20.80
67559;DHT22;54388;53.536;49.300;2023-04-20T03:47:37;20.60;20.50
67559;DHT22;54388;53.536;49.300;2023-04-20T03:50:04;20.80;20.20
67559;DHT22;54388;53.536;49.300;2023-04-20T03:52:30;21.10;20.10
67559;DHT22;54388;53.536;49.300;2023-04-20T03:54:57;21.40;19.80
67559;DHT22;54388;53.536;49.300;2023-04-20T03:57:26;21.60;19.50
67559;DHT22;54388;53.536;49.300;2023-04-20T03:59:57;21.90;19.30
67559;DHT22;54388;53.536;49.300;2023-04-20T04:02:23;22.10;19.10
67559;DHT22;54388;53.536;49.300;2023-04-20T04:04:50;22.40;19.10
67559;DHT22;54388;53.536;49.300;2023-04-20T04:07:17;22.60;18.80
67559;DHT22;54388;53.536;49.300;2023-04-20T04:09:46;22.90;18.70
67559;DHT22;54388;53.536;49.300;2023-04-20T04:12:12;23.10;18.40
67559;DHT22;54388;53.536;49.300;2023-04-20T04:14:41;23.20;18.20
67559;DHT22;54388;53.536;49.300;2023-04-20T04:17:08;23.40;18.00
67559;DHT22;54388;53.536;49.300;2023-04-20T04:19:37;23.60;17.90
67559;DHT22;54388;53.536;49.300;2023-04-20T04:22:05;23.80;17.70
67559;DHT22;54388;53.536;49.300;2023-04-20T04:24:36;24.10;17.50
67559;DHT22;54388;53.536;49.300;2023-04-20T04:27:06;24.30;17.30
67559;DHT22;54388;53.536;49.300;2023-04-20T04:29:35;24.50;17.10
67559;DHT22;54388;53.536;49.300;2023-04-20T04:32:08;24.80;17.00
67559;DHT22;54388;53.536;49.300;2023-04-20T04:34:34;25.10;16.80
67559;DHT22;54388;53.536;49.300;2023-04-20T04:37:01;25.40;16.70
67559;DHT22;54388;53.536;49.300;2023-04-20T04:39:28;25.80;16.50
67559;DHT22;54388;53.536;49.300;2023-04-20T04:41:55;26.10;16.20
67559;DHT22;54388;53.536;49.300;2023-04-20T04:44:22;26.40;16.10
67559;DHT22;54388;53.536;49.300;2023-04-20T04:46:51;26.60;15.90
67559;DHT22;54388;53.536;49.300;2023-04-20T04:49:17;26.80;15.80
67559;DHT22;54388;53.536;49.300;2023-04-20T04:51:50;26.90;15.60
67559;DHT22;54388;53.536;49.300;2023-04-20T04:54:23;27.00;15.60
67559;DHT22;54388;53.536;49.300;2023-04-20T04:56:52;27.20;15.60
67559;DHT22;54388;53.536;49.300;2023-04-20T04:59:18;27.40;15.60
67559;DHT22;54388;53.536;49.300;2023-04-20T05:01:47;27.50;15.50
67559;DHT22;54388;53.536;49.300;2023-04-20T05:04:16;27.70;15.40
67559;DHT22;54388;53.536;49.300;2023-04-20T05:06:42;27.80;15.40
67559;DHT22;54388;53.536;49.300;2023-04-20T05:09:12;27.90;15.20
67559;DHT22;54388;53.536;49.300;2023-04-20T05:11:41;28.10;15.10
67559;DHT22;54388;53.536;49.300;2023-04-20T05:14:12;28.10;15.00
67559;DHT22;54388;53.536;49.300;2023-04-20T05:16:43;28.20;15.00
67559;DHT22;54388;53.536;49.300;2023-04-20T05:19:12;28.20;14.90
67559;DHT22;54388;53.536;49.300;2023-04-20T05:21:41;28.30;14.90
67559;DHT22;54388;53.536;49.300;2023-04-20T05:24:08;28.30;14.80
67559;DHT22;54388;53.536;49.300;2023-04-20T05:26:34;28.30;14.80
67559;DHT22;54388;53.536;49.300;2023-04-20T05:29:03;28.40;14.80
67559;DHT22;54388;53.536;49.300;2023-04-20T05:31:30;28.40;14.80
67559;DHT22;54388;53.536;49.300;2023-04-20T05:34:00;28.50;14.70
67559;DHT22;54388;53.536;49.300;2023-04-20T05:36:30;28.50;14.70
67559;DHT22;54388;53.536;49.300;2023-04-20T05:39:01;28.60;14.60
67559;DHT22;54388;53.536;49.300;2023-04-20T05:41:31;28.70;14.60
67559;DHT22;54388;53.536;49.300;2023-04-20T05:43:57;28.70;14.60
67559;DHT22;54388;53.536;49.300;2023-04-20T05:46:26;28.80;14.40
67559;DHT22;54388;53.536;49.300;2023-04-20T05:48:55;28.80;14.40
67559;DHT22;54388;53.536;49.300;2023-04-20T05:51:22;28.90;14.30
67559;DHT22;54388;53.536;49.300;2023-04-20T05:53:58;29.00;14.10
67559;DHT22;54388;53.536;49.300;2023-04-20T05:56:28;29.10;14.00
67559;DHT22;54388;53.536;49.300;2023-04-20T05:58:58;29.20;14.00
67559;DHT22;54388;53.536;49.300;2023-04-20T06:01:27;29.30;13.90
67559;DHT22;54388;53.536;49.300;2023-04-20T06:03:54;29.50;13.80
67559;DHT22;54388;53.536;49.300;2023-04-20T06:06:24;29.70;13.60
67559;DHT22;54388;53.536;49.300;2023-04-20T06:08:56;29.90;13.50
67559;DHT22;54388;53.536;49.300;2023-04-20T06:11:25;30.10;13.50
67559;DHT22;54388;53.536;49.300;2023-04-20T06:13:59;30.20;13.30
67559;DHT22;54388;53.536;49.300;2023-04-20T06:16:28;30.30;13.20
67559;DHT22;54388;53.536;49.300;2023-04-20T06:19:00;30.40;13.10
67559;DHT22;54388;53.536;49.300;2023-04-20T06:21:31;30.40;13.00
67559;DHT22;54388;53.536;49.300;2023-04-20T06:23:58;30.40;13.10
67559;DHT22;54388;53.536;49.300;2023-04-20T06:26:27;30.50;13.40
67559;DHT22;54388;53.536;49.300;2023-04-20T06:28:56;30.60;13.30
67559;DHT22;54388;53.536;49.300;2023-04-20T06:31:25;30.60;13.20
67559;DHT22;54388;53.536;49.300;2023-04-20T06:33:52;30.70;13.10
67559;DHT22;54388;53.536;49.300;2023-04-20T06:36:20;30.90;13.00
67559;DHT22;54388;53.536;49.300;2023-04-20T06:38:49;30.90;12.90
67559;DHT22;54388;53.536;49.300;2023-04-20T06:41:19;30.90;12.70
67559;DHT22;54388;53.536;49.300;2023-04-20T06:43:48;30.90;12.80
67559;DHT22;54388;53.536;49.300;2023-04-20T06:46:18;30.90;13.50
67559;DHT22;54388;53.536;49.300;2023-04-20T06:48:47;31.00;12.60
67559;DHT22;54388;53.536;49.300;2023-04-20T06:51:15;31.00;12.60
67559;DHT22;54388;53.536;49.300;2023-04-20T06:53:42;31.00;12.60
67559;DHT22;54388;53.536;49.300;2023-04-20T06:56:09;31.10;12.50
67559;DHT22;54388;53.536;49.300;2023-04-20T06:58:36;31.10;12.50
67559;DHT22;54388;53.536;49.300;2023-04-20T07:01:05;31.20;12.50
67559;DHT22;54388;53.536;49.300;2023-04-20T07:03:37;31.20;12.20
67559;DHT22;54388;53.536;49.300;2023-04-20T07:06:06;31.20;12.30
67559;DHT22;54388;53.536;49.300;2023-04-20T07:08:41;31.30;12.30
67559;DHT22;54388;53.536;49.300;2023-04-20T07:11:15;31.40;12.20
67559;DHT22;54388;53.536;49.300;2023-04-20T07:13:42;31.50;12.00
67559;DHT22;54388;53.536;49.300;2023-04-20T07:16:11;31.50;11.90
67559;DHT22;54388;53.536;49.300;2023-04-20T07:18:39;31.70;11.60
67559;DHT22;54388;53.536;49.300;2023-04-20T07:21:08;31.90;11.70
67559;DHT22;54388;53.536;49.300;2023-04-20T07:23:35;32.00;11.50
67559;DHT22;54388;53.536;49.300;2023-04-20T07:26:01;32.20;11.30
67559;DHT22;54388;53.536;49.300;2023-04-20T07:28:28;32.20;11.30
67559;DHT22;54388;53.536;49.300;2023-04-20T07:30:57;32.30;11.40
67559;DHT22;54388;53.536;49.300;2023-04-20T07:33:26;32.40;11.40
67559;DHT22;54388;53.536;49.300;2023-04-20T07:35:54;32.60;11.80
67559;DHT22;54388;53.536;49.300;2023-04-20T07:38:21;32.70;11.20
67559;DHT22;54388;53.536;49.300;2023-04-20T07:40:48;32.90;11.20
67559;DHT22;54388;53.536;49.300;2023-04-20T07:43:14;33.10;11.20
67559;DHT22;54388;53.536;49.300;2023-04-20T07:45:42;33.30;10.90
67559;DHT22;54388;53.536;49.300;2023-04-20T07:48:09;33.60;10.80
67559;DHT22;54388;53.536;49.300;2023-04-20T07:50:37;33.70;10.70
67559;DHT22;54388;53.536;49.300;2023-04-20T07:53:04;33.80;10.50
67559;DHT22;54388;53.536;49.300;2023-04-20T07:55:33;34.00;10.40
67559;DHT22;54388;53.536;49.300;2023-04-20T07:58:02;34.10;10.20
67559;DHT22;54388;53.536;49.300;2023-04-20T08:00:30;34.30;10.30
67559;DHT22;54388;53.536;49.300;2023-04-20T08:02:59;34.40;10.20
67559;DHT22;54388;53.536;49.300;2023-04-20T08:05:28;34.50;10.30
67559;DHT22;54388;53.536;49.300;2023-04-20T08:07:57;34.70;10.30
67559;DHT22;54388;53.536;49.300;2023-04-20T08:10:29;34.70;10.10
67559;DHT22;54388;53.536;49.300;2023-04-20T08:12:55;34.80;10.20
67559;DHT22;54388;53.536;49.300;2023-04-20T08:15:24;34.90;10.20
67559;DHT22;54388;53.536;49.300;2023-04-20T08:17:51;35.00;10.10
67559;DHT22;54388;53.536;49.300;2023-04-20T08:20:18;35.20;10.00
67559;DHT22;54388;53.536;49.300;2023-04-20T08:22:47;35.20;9.80
67559;DHT22;54388;53.536;49.300;2023-04-20T08:25:14;35.20;10.70
67559;DHT22;54388;53.536;49.300;2023-04-20T08:27:46;35.20;9.80
67559;DHT22;54388;53.536;49.300;2023-04-20T08:30:12;35.20;9.80
67559;DHT22;54388;53.536;49.300;2023-04-20T08:32:42;35.20;9.80
67559;DHT22;54388;53.536;49.300;2023-04-20T08:35:09;35.20;9.90
67559;DHT22;54388;53.536;49.300;2023-04-20T08:37:35;35.40;10.70
67559;DHT22;54388;53.536;49.300;2023-04-20T08:40:05;35.30;9.70
67559;DHT22;54388;53.536;49.300;2023-04-20T08:42:31;35.20;9.80
67559;DHT22;54388;53.536;49.300;2023-04-20T08:45:01;35.30;9.70
67559;DHT22;54388;53.536;49.300;2023-04-20T08:47:30;35.30;9.70
67559;DHT22;54388;53.536;49.300;2023-04-20T08:49:59;35.30;10.50
67559;DHT22;54388;53.536;49.300;2023-04-20T08:52:26;35.30;9.60
67559;DHT22;54388;53.536;49.300;2023-04-20T08:54:54;35.30;9.60
67559;DHT22;54388;53.536;49.300;2023-04-20T08:57:26;35.30;9.60
67559;DHT22;54388;53.536;49.300;2023-04-20T08:59:55;35.30;9.60
67559;DHT22;54388;53.536;49.300;2023-04-20T09:02:24;35.30;9.60
67559;DHT22;54388;53.536;49.300;2023-04-20T09:05:00;35.20;9.70
67559;DHT22;54388;53.536;49.300;2023-04-20T09:07:29;35.20;9.70
67559;DHT22;54388;53.536;49.300;2023-04-20T09:09:59;35.10;9.70
67559;DHT22;54388;53.536;49.300;2023-04-20T09:12:40;35.10;9.60
67559;DHT22;54388;53.536;49.300;2023-04-20T09:15:07;35.10;9.50
67559;DHT22;54388;53.536;49.300;2023-04-20T09:17:36;35.10;9.60
67559;DHT22;54388;53.536;49.300;2023-04-20T09:20:05;35.10;9.70
67559;DHT22;54388;53.536;49.300;2023-04-20T09:22:35;35.00;9.60
67559;DHT22;54388;53.536;49.300;2023-04-20T09:25:17;35.00;9.70
67559;DHT22;54388;53.536;49.300;2023-04-20T09:28:04;34.90;9.70
67559;DHT22;54388;53.536;49.300;2023-04-20T09:30:45;34.80;9.70
67559;DHT22;54388;53.536;49.300;2023-04-20T09:33:14;34.80;9.80
67559;DHT22;54388;53.536;49.300;2023-04-20T09:35:46;34.80;9.80
67559;DHT22;54388;53.536;49.300;2023-04-20T09:38:16;34.70;10.60
67559;DHT22;54388;53.536;49.300;2023-04-20T09:40:46;34.70;9.80
67559;DHT22;54388;53.536;49.300;2023-04-20T09:43:18;34.60;9.80
67559;DHT22;54388;53.536;49.300;2023-04-20T09:45:45;34.60;9.80
67559;DHT22;54388;53.536;49.300;2023-04-20T09:48:14;34.60;10.00
67559;DHT22;54388;53.536;49.300;2023-04-20T09:50:47;34.60;10.00
67559;DHT22;54388;53.536;49.300;2023-04-20T09:53:18;34.50;10.00
67559;DHT22;54388;53.536;49.300;2023-04-20T09:55:49;34.50;9.90
67559;DHT22;54388;53.536;49.300;2023-04-20T09:58:19;34.50;10.00
67559;DHT22;54388;53.536;49.300;2023-04-20T10:00:46;34.50;10.10
67559;DHT22;54388;53.536;49.300;2023-04-20T10:03:18;34.40;10.00
67559;DHT22;54388;53.536;49.300;2023-04-20T10:05:50;34.40;10.00
67559;DHT22;54388;53.536;49.300;2023-04-20T10:08:21;34.40;10.10
67559;DHT22;54388;53.536;49.300;2023-04-20T10:10:53;34.20;10.20
67559;DHT22;54388;53.536;49.300;2023-04-20T10:13:32;34.20;10.40
67559;DHT22;54388;53.536;49.300;2023-04-20T10:16:01;34.10;10.50
67559;DHT22;54388;53.536;49.300;2023-04-20T10:18:27;34.00;10.40
67559;DHT22;54388;53.536;49.300;2023-04-20T10:21:09;34.00;10.40
67559;DHT22;54388;53.536;49.300;2023-04-20T10:23:49;33.90;10.40
67559;DHT22;54388;53.536;49.300;2023-04-20T10:26:34;33.90;10.40
67559;DHT22;54388;53.536;49.300;2023-04-20T10:29:07;33.90;10.40
67559;DHT22;54388;53.536;49.300;2023-04-20T10:31:40;33.90;10.40
67559;DHT22;54388;53.536;49.300;2023-04-20T10:34:10;33.90;10.30
67559;DHT22;54388;53.536;49.300;2023-04-20T10:36:39;34.00;10.30
67559;DHT22;54388;53.536;49.300;2023-04-20T10:39:15;34.00;10.20
67559;DHT22;54388;53.536;49.300;2023-04-20T10:41:51;34.10;10.20
67559;DHT22;54388;53.536;49.300;2023-04-20T10:44:19;34.10;10.20
67559;DHT22;54388;53.536;49.300;2023-04-20T10:46:52;34.20;10.20
67559;DHT22;54388;53.536;49.300;2023-04-20T10:49:24;34.30;10.20
67559;DHT22;54388;53.536;49.300;2023-04-20T10:51:55;34.50;10.00
67559;DHT22;54388;53.536;49.300;2023-04-20T10:54:24;34.80;9.90
67559;DHT22;54388;53.536;49.300;2023-04-20T10:56:51;34.90;9.90
67559;DHT22;54388;53.536;49.300;2023-04-20T10:59:23;35.00;9.90
67559;DHT22;54388;53.536;49.300;2023-04-20T11:01:53;35.00;9.90
67559;DHT22;54388;53.536;49.300;2023-04-20T11:04:33;35.00;9.80
67559;DHT22;54388;53.536;49.300;2023-04-20T11:07:05;35.00;9.80
67559;DHT22;54388;53.536;49.300;2023-04-20T11:09:37;34.90;9.80
67559;DHT22;54388;53.536;49.300;2023-04-20T11:14:36;34.80;9.90
67559;DHT22;54388;53.536;49.300;2023-04-20T11:17:04;34.80;9.90
67559;DHT22;54388;53.536;49.300;2023-04-20T11:19:34;34.90;9.90
67559;DHT22;54388;53.536;49.300;2023-04-20T11:22:02;35.00;9.90
67559;DHT22;54388;53.536;49.300;2023-04-20T11:24:33;35.00;10.00
67559;DHT22;54388;53.536;49.300;2023-04-20T11:27:03;34.90;10.00
67559;DHT22;54388;53.536;49.300;2023-04-20T11:29:34;34.90;10.10
67559;DHT22;54388;53.536;49.300;2023-04-20T11:32:04;34.90;10.10
67559;DHT22;54388;53.536;49.300;2023-04-20T11:34:36;34.90;10.00
67559;DHT22;54388;53.536;49.300;2023-04-20T11:37:07;34.90;10.10
67559;DHT22;54388;53.536;49.300;2023-04-20T11:39:38;34.80;10.00
67559;DHT22;54388;53.536;49.300;2023-04-20T11:42:08;34.80;10.00
67559;DHT22;54388;53.536;49.300;2023-04-20T11:44:37;34.90;9.90
67559;DHT22;54388;53.536;49.300;2023-04-20T11:47:06;35.00;9.90
67559;DHT22;54388;53.536;49.300;2023-04-20T11:49:35;35.20;10.00
67559;DHT22;54388;53.536;49.300;2023-04-20T11:52:04;35.30;10.00
67559;DHT22;54388;53.536;49.300;2023-04-20T11:54:33;35.40;9.90
67559;DHT22;54388;53.536;49.300;2023-04-20T11:57:03;35.50;9.80
67559;DHT22;54388;53.536;49.300;2023-04-20T11:59:30;35.80;9.70
67559;DHT22;54388;53.536;49.300;2023-04-20T12:01:56;35.90;9.60
67559;DHT22;54388;53.536;49.300;2023-04-20T12:04:25;36.00;9.40
67559;DHT22;54388;53.536;49.300;2023-04-20T12:06:55;36.20;9.50
67559;DHT22;54388;53.536;49.300;2023-04-20T12:09:26;36.40;9.40
67559;DHT22;54388;53.536;49.300;2023-04-20T12:11:57;36.60;9.40
67559;DHT22;54388;53.536;49.300;2023-04-20T12:14:24;36.70;9.40
67559;DHT22;54388;53.536;49.300;2023-04-20T12:16:52;36.80;9.20
67559;DHT22;54388;53.536;49.300;2023-04-20T12:19:18;37.00;9.20
67559;DHT22;54388;53.536;49.300;2023-04-20T12:21:45;37.20;9.10
67559;DHT22;54388;53.536;49.300;2023-04-20T12:24:15;37.20;9.10
67559;DHT22;54388;53.536;49.300;2023-04-20T12:26:42;37.30;9.30
67559;DHT22;54388;53.536;49.300;2023-04-20T12:29:11;37.40;9.20
67559;DHT22;54388;53.536;49.300;2023-04-20T12:31:40;37.50;9.00
67559;DHT22;54388;53.536;49.300;2023-04-20T12:34:10;37.60;9.00
67559;DHT22;54388;53.536;49.300;2023-04-20T12:36:37;37.70;8.90
67559;DHT22;54388;53.536;49.300;2023-04-20T12:39:06;37.70;9.80
67559;DHT22;54388;53.536;49.300;2023-04-20T12:41:39;37.70;9.80
67559;DHT22;54388;53.536;49.300;2023-04-20T12:44:13;37.60;8.90
67559;DHT22;54388;53.536;49.300;2023-04-20T12:46:39;37.50;8.90
67559;DHT22;54388;53.536;49.300;2023-04-20T12:49:11;37.40;9.00
67559;DHT22;54388;53.536;49.300;2023-04-20T12:51:43;37.20;8.90
67559;DHT22;54388;53.536;49.300;2023-04-20T12:54:12;37.10;9.00
67559;DHT22;54388;53.536;49.300;2023-04-20T12:56:41;37.00;9.00
67559;DHT22;54388;53.536;49.300;2023-04-20T12:59:08;37.00;9.10
67559;DHT22;54388;53.536;49.300;2023-04-20T13:01:37;36.90;9.00
67559;DHT22;54388;53.536;49.300;2023-04-20T13:04:03;36.80;9.10
67559;DHT22;54388;53.536;49.300;2023-04-20T13:06:37;36.90;9.10
67559;DHT22;54388;53.536;49.300;2023-04-20T13:09:03;37.00;9.00
67559;DHT22;54388;53.536;49.300;2023-04-20T13:11:31;37.00;9.00
67559;DHT22;54388;53.536;49.300;2023-04-20T13:13:57;37.00;9.00
67559;DHT22;54388;53.536;49.300;2023-04-20T13:16:26;37.00;9.10
67559;DHT22;54388;53.536;49.300;2023-04-20T13:18:56;37.00;9.10
67559;DHT22;54388;53.536;49.300;2023-04-20T13:21:25;37.00;9.30
67559;DHT22;54388;53.536;49.300;2023-04-20T13:23:54;36.80;9.20
67559;DHT22;54388;53.536;49.300;2023-04-20T13:26:23;36.80;9.20
67559;DHT22;54388;53.536;49.300;2023-04-20T13:28:52;36.90;9.10
67559;DHT22;54388;53.536;49.300;2023-04-20T13:31:24;36.90;9.10
67559;DHT22;54388;53.536;49.300;2023-04-20T13:33:50;36.90;9.10
67559;DHT22;54388;53.536;49.300;2023-04-20T13:36:26;36.80;9.10
67559;DHT22;54388;53.536;49.300;2023-04-20T13:38:53;36.70;9.10
67559;DHT22;54388;53.536;49.300;2023-04-20T13:41:21;36.60;9.10
67559;DHT22;54388;53.536;49.300;2023-04-20T13:43:55;36.50;9.10
67559;DHT22;54388;53.536;49.300;2023-04-20T13:46:24;36.50;9.20
67559;DHT22;54388;53.536;49.300;2023-04-20T13:48:51;36.40;9.10
67559;DHT22;54388;53.536;49.300;2023-04-20T13:51:22;36.30;9.10
67559;DHT22;54388;53.536;49.300;2023-04-20T13:53:56;36.20;10.00
67559;DHT22;54388;53.536;49.300;2023-04-20T13:56:23;36.10;9.20
67559;DHT22;54388;53.536;49.300;2023-04-20T13:58:49;36.00;9.30
67559;DHT22;54388;53.536;49.300;2023-04-20T14:01:18;36.00;9.30
67559;DHT22;54388;53.536;49.300;2023-04-20T14:03:47;35.90;9.30
67559;DHT22;54388;53.536;49.300;2023-04-20T14:06:16;35.80;9.40
67559;DHT22;54388;53.536;49.300;2023-04-20T14:08:43;35.80;9.40
67559;DHT22;54388;53.536;49.300;2023-04-20T14:11:12;35.70;9.40
67559;DHT22;54388;53.536;49.300;2023-04-20T14:13:39;35.70;9.40
67559;DHT22;54388;53.536;49.300;2023-04-20T14:16:09;35.60;9.40
67559;DHT22;54388;53.536;49.300;2023-04-20T14:18:36;35.60;9.50
67559;DHT22;54388;53.536;49.300;2023-04-20T14:21:05;35.50;9.40
67559;DHT22;54388;53.536;49.300;2023-04-20T14:23:37;35.50;9.40
67559;DHT22;54388;53.536;49.300;2023-04-20T14:26:03;35.50;9.40
67559;DHT22;54388;53.536;49.300;2023-04-20T14:28:30;35.40;9.40
67559;DHT22;54388;53.536;49.300;2023-04-20T14:30:59;35.30;9.40
67559;DHT22;54388;53.536;49.300;2023-04-20T14:33:30;35.20;9.50
67559;DHT22;54388;53.536;49.300;2023-04-20T14:35:57;35.20;9.60
67559;DHT22;54388;53.536;49.300;2023-04-20T14:38:28;35.10;9.50
67559;DHT22;54388;53.536;49.300;2023-04-20T14:40:55;35.10;9.50
67559;DHT22;54388;53.536;49.300;2023-04-20T14:43:21;35.10;9.50
67559;DHT22;54388;53.536;49.300;2023-04-20T14:45:49;35.10;9.50
67559;DHT22;54388;53.536;49.300;2023-04-20T14:48:16;35.00;9.50
67559;DHT22;54388;53.536;49.300;2023-04-20T14:50:45;34.90;9.50
67559;DHT22;54388;53.536;49.300;2023-04-20T14:53:14;34.80;9.60
67559;DHT22;54388;53.536;49.300;2023-04-20T14:55:43;34.70;9.60
67559;DHT22;54388;53.536;49.300;2023-04-20T14:58:15;34.50;9.60
67559;DHT22;54388;53.536;49.300;2023-04-20T15:00:47;34.40;9.70
67559;DHT22;54388;53.536;49.300;2023-04-20T15:03:17;34.20;9.70
67559;DHT22;54388;53.536;49.300;2023-04-20T15:05:44;34.00;9.80
67559;DHT22;54388;53.536;49.300;2023-04-20T15:08:10;33.80;9.90
67559;DHT22;54388;53.536;49.300;2023-04-20T15:10:40;33.60;10.00
67559;DHT22;54388;53.536;49.300;2023-04-20T15:13:09;33.30;10.00
67559;DHT22;54388;53.536;49.300;2023-04-20T15:15:36;33.10;10.20
67559;DHT22;54388;53.536;49.300;2023-04-20T15:18:05;32.80;10.40
67559;DHT22;54388;53.536;49.300;2023-04-20T15:20:31;32.50;10.40
67559;DHT22;54388;53.536;49.300;2023-04-20T15:22:58;32.20;10.50
67559;DHT22;54388;53.536;49.300;2023-04-20T15:25:28;31.90;10.50
67559;DHT22;54388;53.536;49.300;2023-04-20T15:27:56;31.60;10.60
67559;DHT22;54388;53.536;49.300;2023-04-20T15:30:23;31.30;10.80
67559;DHT22;54388;53.536;49.300;2023-04-20T15:32:50;31.10;10.90
67559;DHT22;54388;53.536;49.300;2023-04-20T15:35:16;30.80;11.00